createdAt,value
2022-12-20T00:00:07.773Z,179.43
2022-12-20T00:01:02.803Z,178.67
2022-12-20T00:01:57.998Z,178.86
2022-12-20T00:02:53.069Z,179.82
2022-12-20T00:03:47.968Z,179.05
2022-12-20T00:04:43.049Z,179.43
2022-12-20T00:05:38.197Z,180.02
2022-12-20T00:06:33.638Z,179.05
2022-12-20T00:07:28.686Z,177.90
2022-12-20T00:08:23.763Z,179.05
2022-12-20T00:09:18.946Z,179.43
2022-12-20T00:10:14.240Z,179.24
2022-12-20T00:11:09.482Z,177.72
2022-12-20T00:12:04.669Z,177.15
2022-12-20T00:12:59.806Z,175.84
2022-12-20T00:13:55.113Z,175.66
2022-12-20T00:14:50.307Z,175.29
2022-12-20T00:15:45.492Z,174.74
2022-12-20T00:16:40.823Z,174.37
2022-12-20T00:17:35.923Z,174.37
2022-12-20T00:18:31.020Z,172.04
2022-12-20T00:19:26.262Z,172.57
2022-12-20T00:20:21.432Z,172.75
2022-12-20T00:21:16.768Z,172.93
2022-12-20T00:22:11.847Z,174.19
2022-12-20T00:23:07.001Z,173.47
2022-12-20T00:24:02.179Z,173.29
2022-12-20T00:24:57.546Z,174.55
2022-12-20T00:25:52.687Z,174.37
2022-12-20T00:26:47.879Z,175.47
2022-12-20T00:27:43.059Z,175.29
2022-12-20T00:28:38.386Z,175.10
2022-12-20T00:29:33.385Z,175.84
2022-12-20T00:30:28.587Z,176.40
2022-12-20T00:31:23.857Z,176.21
2022-12-20T00:32:19.046Z,176.21
2022-12-20T00:33:14.532Z,176.21
2022-12-20T00:34:09.441Z,175.29
2022-12-20T00:35:04.659Z,175.29
2022-12-20T00:35:59.856Z,174.37
2022-12-20T00:36:54.983Z,173.29
2022-12-20T00:37:50.455Z,172.21
2022-12-20T00:38:45.536Z,172.57
2022-12-20T00:39:40.702Z,172.04
2022-12-20T00:40:35.866Z,172.39
2022-12-20T00:41:31.214Z,172.39
2022-12-20T00:42:26.226Z,170.98
2022-12-20T00:43:21.290Z,171.33
2022-12-20T00:44:16.382Z,170.98
2022-12-20T00:45:11.420Z,170.98
2022-12-20T00:46:06.465Z,170.98
2022-12-20T00:47:01.618Z,171.15
2022-12-20T00:47:56.568Z,169.42
2022-12-20T00:48:51.746Z,169.59
2022-12-20T00:49:46.671Z,169.24
2022-12-20T00:50:41.720Z,170.11
2022-12-20T00:51:36.805Z,169.76
2022-12-20T00:52:31.862Z,170.98
2022-12-20T00:53:26.914Z,170.98
2022-12-20T00:54:21.978Z,171.68
2022-12-20T00:55:17.009Z,171.51
2022-12-20T00:56:12.077Z,171.33
2022-12-20T00:57:07.141Z,172.04
2022-12-20T00:58:02.234Z,171.86
2022-12-20T00:58:57.379Z,173.11
2022-12-20T00:59:52.472Z,172.04
2022-12-20T01:00:52.240Z,173.83
2022-12-20T01:01:44.075Z,172.93
2022-12-20T01:02:38.216Z,173.83
2022-12-20T01:03:33.375Z,174.01
2022-12-20T01:04:28.420Z,174.37
2022-12-20T01:05:23.598Z,176.59
2022-12-20T01:06:18.756Z,175.66
2022-12-20T01:07:13.947Z,176.03
2022-12-20T01:08:09.664Z,175.66
2022-12-20T01:09:04.898Z,175.66
2022-12-20T01:10:00.732Z,177.15
2022-12-20T01:10:55.906Z,177.15
2022-12-20T01:11:51.292Z,177.34
2022-12-20T01:12:47.032Z,178.86
2022-12-20T01:13:42.278Z,178.10
2022-12-20T01:14:37.457Z,178.48
2022-12-20T01:15:33.743Z,177.90
2022-12-20T01:16:29.005Z,177.53
2022-12-20T01:17:24.731Z,178.48
2022-12-20T01:18:19.996Z,178.86
2022-12-20T01:19:15.215Z,178.67
2022-12-20T01:20:10.977Z,176.96
2022-12-20T01:21:06.164Z,177.90
2022-12-20T01:22:02.044Z,178.10
2022-12-20T01:22:57.070Z,178.67
2022-12-20T01:23:52.467Z,178.86
2022-12-20T01:24:48.093Z,178.29
2022-12-20T01:25:43.300Z,178.48
2022-12-20T01:26:38.587Z,180.80
2022-12-20T01:27:34.815Z,179.82
2022-12-20T01:28:29.963Z,182.78
2022-12-20T01:29:25.907Z,183.78
2022-12-20T01:30:21.060Z,186.66
2022-12-20T01:31:16.559Z,185.31
2022-12-20T01:32:12.274Z,184.79
2022-12-20T01:33:07.491Z,186.57
2022-12-20T01:34:03.259Z,187.96
2022-12-20T01:34:58.468Z,187.85
2022-12-20T01:35:53.777Z,188.72
2022-12-20T01:36:49.533Z,189.26
2022-12-20T01:37:44.716Z,189.48
2022-12-20T01:38:39.954Z,189.59
2022-12-20T01:39:36.353Z,188.83
2022-12-20T01:40:31.563Z,191.36
2022-12-20T01:41:27.309Z,191.36
2022-12-20T01:42:22.474Z,193.73
2022-12-20T01:43:17.786Z,192.71
2022-12-20T01:44:13.528Z,191.81
2022-12-20T01:45:08.755Z,190.80
2022-12-20T01:46:04.589Z,190.25
2022-12-20T01:46:59.617Z,189.04
2022-12-20T01:47:54.987Z,189.81
2022-12-20T01:48:50.611Z,189.04
2022-12-20T01:49:45.807Z,189.48
2022-12-20T01:50:40.973Z,189.48
2022-12-20T01:51:37.422Z,190.36
2022-12-20T01:52:32.601Z,190.91
2022-12-20T01:53:28.353Z,190.91
2022-12-20T01:54:23.551Z,190.36
2022-12-20T01:55:18.749Z,192.26
2022-12-20T01:56:14.526Z,192.37
2022-12-20T01:57:09.725Z,192.48
2022-12-20T01:58:05.610Z,192.48
2022-12-20T01:59:00.679Z,192.48
2022-12-20T01:59:55.885Z,193.62
2022-12-20T02:00:51.701Z,190.91
2022-12-20T02:01:47.034Z,191.70
2022-12-20T02:02:42.362Z,193.05
2022-12-20T02:03:38.749Z,190.69
2022-12-20T02:04:33.951Z,192.82
2022-12-20T02:05:29.722Z,192.37
2022-12-20T02:06:24.901Z,192.60
2022-12-20T02:07:20.265Z,193.05
2022-12-20T02:08:15.309Z,191.47
2022-12-20T02:09:10.510Z,193.16
2022-12-20T02:10:06.302Z,191.58
2022-12-20T02:11:01.665Z,189.81
2022-12-20T02:11:56.801Z,186.47
2022-12-20T02:12:53.237Z,185.83
2022-12-20T02:13:48.421Z,185.73
2022-12-20T02:14:44.205Z,185.10
2022-12-20T02:15:39.391Z,187.00
2022-12-20T02:16:34.934Z,187.21
2022-12-20T02:17:30.581Z,189.04
2022-12-20T02:18:25.795Z,191.81
2022-12-20T02:19:21.532Z,192.48
2022-12-20T02:20:16.832Z,196.16
2022-12-20T02:21:12.173Z,197.23
2022-12-20T02:22:07.806Z,197.94
2022-12-20T02:23:02.983Z,200.36
2022-12-20T02:23:58.198Z,202.96
2022-12-20T02:24:53.420Z,204.73
2022-12-20T02:25:48.768Z,206.80
2022-12-20T02:26:43.768Z,207.85
2022-12-20T02:27:38.771Z,210.51
2022-12-20T02:28:37.387Z,213.25
2022-12-20T02:29:32.663Z,211.74
2022-12-20T02:30:28.146Z,212.56
2022-12-20T02:31:23.307Z,214.50
2022-12-20T02:32:18.348Z,211.87
2022-12-20T02:33:13.430Z,212.83
2022-12-20T02:34:08.384Z,214.79
2022-12-20T02:35:03.476Z,214.93
2022-12-20T02:35:58.503Z,212.01
2022-12-20T02:36:53.711Z,211.05
2022-12-20T02:37:48.748Z,211.60
2022-12-20T02:38:43.839Z,211.33
2022-12-20T02:39:38.869Z,208.37
2022-12-20T02:40:34.045Z,208.64
2022-12-20T02:41:28.953Z,207.98
2022-12-20T02:42:24.140Z,207.45
2022-12-20T02:43:19.203Z,205.63
2022-12-20T02:44:14.255Z,205.63
2022-12-20T02:45:09.338Z,204.99
2022-12-20T02:46:04.460Z,205.24
2022-12-20T02:46:59.489Z,204.73
2022-12-20T02:47:54.670Z,203.97
2022-12-20T02:48:49.806Z,203.72
2022-12-20T02:49:44.869Z,201.46
2022-12-20T02:50:40.093Z,200.48
2022-12-20T02:51:34.989Z,200.11
2022-12-20T02:52:30.033Z,200.24
2022-12-20T02:53:25.065Z,199.75
2022-12-20T02:54:20.063Z,198.78
2022-12-20T02:55:15.142Z,199.26
2022-12-20T02:56:10.176Z,198.78
2022-12-20T02:57:05.196Z,197.94
2022-12-20T02:58:00.918Z,198.06
2022-12-20T02:58:55.384Z,197.94
2022-12-20T02:59:50.413Z,198.90
2022-12-20T03:00:45.435Z,198.06
2022-12-20T03:01:40.543Z,199.26
2022-12-20T03:02:35.876Z,199.87
2022-12-20T03:03:30.962Z,199.75
2022-12-20T03:04:26.292Z,200.24
2022-12-20T03:05:21.362Z,201.22
2022-12-20T03:06:16.556Z,200.85
2022-12-20T03:07:11.740Z,200.73
2022-12-20T03:08:06.908Z,200.60
2022-12-20T03:09:02.213Z,201.34
2022-12-20T03:09:57.282Z,201.96
2022-12-20T03:10:52.713Z,201.46
2022-12-20T03:11:47.699Z,201.46
2022-12-20T03:12:42.861Z,202.33
2022-12-20T03:13:38.277Z,203.09
2022-12-20T03:14:33.316Z,205.24
2022-12-20T03:15:28.788Z,206.41
2022-12-20T03:16:23.916Z,209.17
2022-12-20T03:17:19.188Z,210.65
2022-12-20T03:18:14.373Z,213.25
2022-12-20T03:19:09.633Z,213.53
2022-12-20T03:20:04.823Z,214.93
2022-12-20T03:21:00.353Z,216.06
2022-12-20T03:21:55.458Z,215.63
2022-12-20T03:22:50.731Z,215.07
2022-12-20T03:23:45.953Z,213.25
2022-12-20T03:24:41.216Z,212.97
2022-12-20T03:25:36.580Z,213.11
2022-12-20T03:26:31.784Z,210.51
2022-12-20T03:27:26.993Z,211.60
2022-12-20T03:28:22.243Z,210.78
2022-12-20T03:29:17.444Z,208.51
2022-12-20T03:30:12.697Z,208.24
2022-12-20T03:31:10.532Z,206.54
2022-12-20T03:32:05.656Z,207.06
2022-12-20T03:33:00.834Z,207.19
2022-12-20T03:33:56.113Z,207.06
2022-12-20T03:34:51.457Z,207.45
2022-12-20T03:35:46.702Z,209.04
2022-12-20T03:36:41.816Z,209.71
2022-12-20T03:37:37.034Z,213.11
2022-12-20T03:38:32.138Z,216.91
2022-12-20T03:39:27.249Z,218.94
2022-12-20T03:40:22.341Z,219.23
2022-12-20T03:41:17.329Z,223.87
2022-12-20T03:42:12.399Z,225.41
2022-12-20T03:43:07.523Z,227.12
2022-12-20T03:44:02.706Z,229.35
2022-12-20T03:44:57.725Z,230.15
2022-12-20T03:45:52.825Z,232.43
2022-12-20T03:46:47.877Z,231.61
2022-12-20T03:47:43.184Z,233.43
2022-12-20T03:48:38.273Z,232.43
2022-12-20T03:49:33.485Z,232.10
2022-12-20T03:50:28.495Z,232.43
2022-12-20T03:51:23.598Z,230.64
2022-12-20T03:52:18.817Z,229.51
2022-12-20T03:53:13.905Z,228.39
2022-12-20T03:54:09.030Z,228.87
2022-12-20T03:55:04.038Z,228.07
2022-12-20T03:55:59.130Z,229.19
2022-12-20T03:56:54.196Z,228.71
2022-12-20T03:57:49.316Z,229.99
2022-12-20T03:58:44.407Z,231.12
2022-12-20T03:59:39.444Z,232.93
2022-12-20T04:00:34.530Z,234.60
2022-12-20T04:01:29.672Z,235.60
2022-12-20T04:02:26.384Z,235.77
2022-12-20T04:03:21.378Z,234.76
2022-12-20T04:04:16.359Z,233.26
2022-12-20T04:05:11.341Z,229.67
2022-12-20T04:06:06.353Z,228.71
2022-12-20T04:07:01.442Z,223.11
2022-12-20T04:07:56.579Z,218.07
2022-12-20T04:08:51.630Z,215.63
2022-12-20T04:09:46.594Z,214.08
2022-12-20T04:10:41.702Z,213.39
2022-12-20T04:11:36.792Z,212.83
2022-12-20T04:12:31.941Z,212.28
2022-12-20T04:13:27.575Z,211.74
2022-12-20T04:14:22.793Z,211.05
2022-12-20T04:15:17.977Z,213.25
2022-12-20T04:16:13.900Z,214.64
2022-12-20T04:17:09.063Z,214.79
2022-12-20T04:18:04.796Z,214.36
2022-12-20T04:18:59.972Z,215.63
2022-12-20T04:19:55.381Z,215.49
2022-12-20T04:20:51.136Z,213.67
2022-12-20T04:21:46.360Z,212.97
2022-12-20T04:22:41.551Z,213.67
2022-12-20T04:23:37.886Z,212.70
2022-12-20T04:24:33.091Z,211.87
2022-12-20T04:25:28.813Z,209.57
2022-12-20T04:26:24.003Z,208.37
2022-12-20T04:27:19.201Z,209.04
2022-12-20T04:28:14.933Z,206.41
2022-12-20T04:29:10.286Z,202.58
2022-12-20T04:30:06.120Z,202.84
2022-12-20T04:31:01.272Z,199.75
2022-12-20T04:31:56.467Z,201.59
2022-12-20T04:32:52.264Z,200.97
2022-12-20T04:33:47.675Z,199.38
2022-12-20T04:34:42.925Z,198.66
2022-12-20T04:35:39.198Z,198.42
2022-12-20T04:36:34.538Z,188.72
2022-12-20T04:37:30.322Z,188.72
2022-12-20T04:38:25.538Z,192.26
2022-12-20T04:39:21.064Z,195.00
2022-12-20T04:40:16.757Z,196.87
2022-12-20T04:41:11.991Z,198.30
2022-12-20T04:42:07.816Z,199.87
2022-12-20T04:43:03.013Z,201.09
2022-12-20T04:43:58.409Z,200.85
2022-12-20T04:44:54.109Z,199.87
2022-12-20T04:45:49.364Z,200.85
2022-12-20T04:46:44.709Z,201.09
2022-12-20T04:47:40.949Z,198.78
2022-12-20T04:48:55.647Z,199.02
2022-12-20T04:49:33.048Z,199.14
2022-12-20T04:50:27.355Z,198.90
2022-12-20T04:51:22.515Z,198.06
2022-12-20T04:52:18.287Z,196.99
2022-12-20T04:53:13.488Z,197.58
2022-12-20T04:54:09.423Z,198.78
2022-12-20T04:55:04.467Z,198.54
2022-12-20T04:55:59.679Z,198.78
2022-12-20T04:56:55.525Z,197.46
2022-12-20T04:57:50.720Z,199.38
2022-12-20T04:58:46.031Z,199.14
2022-12-20T04:59:41.125Z,199.26
2022-12-20T05:00:36.864Z,196.16
2022-12-20T05:01:32.115Z,194.31
2022-12-20T05:02:27.531Z,195.70
2022-12-20T05:03:23.185Z,195.46
2022-12-20T05:04:18.386Z,195.35
2022-12-20T05:05:14.274Z,194.31
2022-12-20T05:06:09.340Z,195.81
2022-12-20T05:07:04.542Z,196.28
2022-12-20T05:08:00.348Z,196.40
2022-12-20T05:08:55.531Z,193.16
2022-12-20T05:09:50.871Z,188.83
2022-12-20T05:10:47.341Z,189.26
2022-12-20T05:11:42.408Z,188.83
2022-12-20T05:12:38.178Z,188.39
2022-12-20T05:13:33.401Z,187.53
2022-12-20T05:14:28.713Z,187.21
2022-12-20T05:15:24.411Z,187.43
2022-12-20T05:16:19.525Z,188.50
2022-12-20T05:17:14.769Z,189.59
2022-12-20T05:18:09.985Z,189.04
2022-12-20T05:19:05.173Z,188.72
2022-12-20T05:20:00.380Z,188.07
2022-12-20T05:20:55.567Z,190.25
2022-12-20T05:21:51.870Z,189.04
2022-12-20T05:22:47.363Z,189.37
2022-12-20T05:23:42.411Z,190.03
2022-12-20T05:24:38.234Z,192.71
2022-12-20T05:25:33.369Z,193.85
2022-12-20T05:26:28.687Z,192.48
2022-12-20T05:27:23.866Z,192.26
2022-12-20T05:28:19.219Z,192.60
2022-12-20T05:29:14.497Z,192.37
2022-12-20T05:30:10.806Z,184.89
2022-12-20T05:31:06.021Z,184.79
2022-12-20T05:32:01.380Z,185.20
2022-12-20T05:33:00.511Z,170.46
2022-12-20T05:33:55.709Z,164.41
2022-12-20T05:34:50.904Z,158.63
2022-12-20T05:35:46.088Z,155.67
2022-12-20T05:36:41.153Z,154.80
2022-12-20T05:37:36.213Z,154.23
2022-12-20T05:38:31.289Z,160.77
2022-12-20T05:39:26.341Z,164.90
2022-12-20T05:40:21.464Z,166.88
2022-12-20T05:41:16.681Z,165.22
2022-12-20T05:42:11.842Z,160.30
2022-12-20T05:43:06.903Z,146.64
2022-12-20T05:44:02.127Z,136.56
2022-12-20T05:44:57.310Z,132.02
2022-12-20T05:45:52.493Z,128.96
2022-12-20T05:46:47.723Z,125.85
2022-12-20T05:47:42.680Z,124.16
2022-12-20T05:48:37.734Z,125.28
2022-12-20T05:49:32.732Z,122.16
2022-12-20T05:50:27.824Z,122.34
2022-12-20T05:51:22.879Z,122.70
2022-12-20T05:52:17.948Z,125.56
2022-12-20T05:53:12.967Z,115.32
2022-12-20T05:54:08.061Z,112.53
2022-12-20T05:55:03.138Z,108.36
2022-12-20T05:55:58.207Z,110.73
2022-12-20T05:56:53.297Z,118.02
2022-12-20T05:57:48.344Z,125.28
2022-12-20T05:58:43.535Z,131.19
2022-12-20T05:59:38.727Z,137.69
2022-12-20T06:00:34.045Z,120.92
2022-12-20T06:01:29.249Z,119.54
2022-12-20T06:02:24.660Z,126.04
2022-12-20T06:03:19.735Z,129.96
2022-12-20T06:04:15.030Z,134.04
2022-12-20T06:05:09.968Z,137.46
2022-12-20T06:06:10.147Z,140.59
2022-12-20T06:07:00.967Z,142.38
2022-12-20T06:07:55.228Z,144.73
2022-12-20T06:08:50.189Z,148.20
2022-12-20T06:09:45.231Z,152.40
2022-12-20T06:10:40.295Z,153.80
2022-12-20T06:11:35.444Z,153.80
2022-12-20T06:12:30.342Z,155.96
2022-12-20T06:13:25.553Z,157.13
2022-12-20T06:14:20.634Z,151.84
2022-12-20T06:15:15.767Z,151.57
2022-12-20T06:16:10.750Z,152.40
2022-12-20T06:17:05.845Z,146.90
2022-12-20T06:18:00.873Z,143.24
2022-12-20T06:18:55.944Z,145.24
2022-12-20T06:19:50.993Z,145.62
2022-12-20T06:20:46.448Z,145.62
2022-12-20T06:21:41.378Z,144.86
2022-12-20T06:22:36.450Z,144.86
2022-12-20T06:23:31.508Z,147.55
2022-12-20T06:24:26.540Z,146.38
2022-12-20T06:25:21.682Z,145.74
2022-12-20T06:26:16.997Z,144.61
2022-12-20T06:27:12.010Z,142.38
2022-12-20T06:28:07.141Z,141.90
2022-12-20T06:29:02.204Z,140.23
2022-12-20T06:29:57.250Z,138.83
2022-12-20T06:30:52.329Z,138.95
2022-12-20T06:31:47.641Z,139.88
2022-12-20T06:32:42.492Z,141.66
2022-12-20T06:33:37.594Z,142.51
2022-12-20T06:34:32.660Z,143.86
2022-12-20T06:35:27.816Z,143.61
2022-12-20T06:36:22.895Z,141.06
2022-12-20T06:37:22.845Z,137.01
2022-12-20T06:38:18.035Z,135.56
2022-12-20T06:39:13.275Z,133.93
2022-12-20T06:40:08.487Z,134.90
2022-12-20T06:41:03.858Z,134.25
2022-12-20T06:41:58.929Z,135.12
2022-12-20T06:42:54.159Z,135.78
2022-12-20T06:43:49.381Z,135.12
2022-12-20T06:44:44.585Z,135.12
2022-12-20T06:45:42.251Z,136.34
2022-12-20T06:46:35.124Z,137.80
2022-12-20T06:47:30.330Z,138.49
2022-12-20T06:48:25.533Z,139.06
2022-12-20T06:49:20.871Z,138.72
2022-12-20T06:50:16.211Z,138.49
2022-12-20T06:51:11.514Z,136.22
2022-12-20T06:52:06.754Z,136.56
2022-12-20T06:53:01.983Z,135.78
2022-12-20T06:53:57.169Z,136.00
2022-12-20T06:54:52.372Z,135.01
2022-12-20T06:55:47.726Z,132.65
2022-12-20T06:56:42.897Z,132.02
2022-12-20T06:57:38.293Z,134.90
2022-12-20T06:58:33.475Z,137.91
2022-12-20T06:59:28.738Z,141.18
2022-12-20T07:00:24.076Z,141.78
2022-12-20T07:01:19.560Z,141.66
2022-12-20T07:02:14.834Z,141.90
2022-12-20T07:03:10.135Z,143.49
2022-12-20T07:04:05.341Z,143.49
2022-12-20T07:05:02.240Z,139.29
2022-12-20T07:05:57.508Z,137.35
2022-12-20T07:06:52.745Z,139.29
2022-12-20T07:07:48.284Z,141.06
2022-12-20T07:08:43.466Z,143.98
2022-12-20T07:09:38.688Z,145.24
2022-12-20T07:10:33.706Z,145.24
2022-12-20T07:11:28.801Z,146.90
2022-12-20T07:12:23.899Z,149.80
2022-12-20T07:13:18.884Z,151.02
2022-12-20T07:14:14.020Z,151.71
2022-12-20T07:15:09.059Z,150.74
2022-12-20T07:16:04.212Z,150.20
2022-12-20T07:16:59.200Z,148.86
2022-12-20T07:17:54.227Z,148.20
2022-12-20T07:18:49.213Z,147.94
2022-12-20T07:19:50.332Z,146.64
2022-12-20T07:20:40.343Z,147.55
2022-12-20T07:21:34.415Z,146.38
2022-12-20T07:22:29.541Z,145.36
2022-12-20T07:23:24.682Z,144.73
2022-12-20T07:24:19.730Z,139.53
2022-12-20T07:25:14.839Z,131.50
2022-12-20T07:26:09.867Z,130.37
2022-12-20T07:27:04.925Z,134.90
2022-12-20T07:27:59.975Z,137.57
2022-12-20T07:28:55.310Z,138.14
2022-12-20T07:29:50.594Z,139.64
2022-12-20T07:30:46.021Z,139.53
2022-12-20T07:31:41.232Z,140.23
2022-12-20T07:32:36.542Z,141.06
2022-12-20T07:33:31.883Z,140.35
2022-12-20T07:34:27.264Z,139.64
2022-12-20T07:35:22.713Z,126.23
2022-12-20T07:36:17.878Z,123.89
2022-12-20T07:37:13.217Z,126.52
2022-12-20T07:38:08.720Z,129.06
2022-12-20T07:39:03.920Z,129.36
2022-12-20T07:39:59.308Z,129.96
2022-12-20T07:40:54.667Z,131.09
2022-12-20T07:41:50.022Z,127.97
2022-12-20T07:42:48.828Z,121.10
2022-12-20T07:43:40.812Z,119.62
2022-12-20T07:44:36.238Z,122.34
2022-12-20T07:45:31.610Z,123.98
2022-12-20T07:46:26.919Z,125.19
2022-12-20T07:47:22.233Z,125.94
2022-12-20T07:48:21.539Z,127.68
2022-12-20T07:49:13.266Z,127.19
2022-12-20T07:50:08.801Z,125.09
2022-12-20T07:51:04.077Z,125.19
2022-12-20T07:51:59.468Z,125.00
2022-12-20T07:52:54.856Z,126.04
2022-12-20T07:53:50.228Z,126.04
2022-12-20T07:54:45.344Z,124.72
2022-12-20T07:55:40.398Z,122.79
2022-12-20T07:56:40.942Z,120.23
2022-12-20T07:57:31.422Z,111.62
2022-12-20T07:58:25.449Z,105.75
2022-12-20T07:59:20.518Z,107.25
2022-12-20T08:00:15.680Z,107.25
2022-12-20T08:01:10.671Z,109.43
2022-12-20T08:02:05.855Z,109.57
2022-12-20T08:03:00.926Z,111.47
2022-12-20T08:03:55.803Z,111.85
2022-12-20T08:04:50.803Z,111.47
2022-12-20T08:05:45.884Z,112.15
2022-12-20T08:06:40.724Z,113.52
2022-12-20T08:07:37.464Z,113.83
2022-12-20T08:08:32.428Z,115.09
2022-12-20T08:09:27.568Z,114.61
2022-12-20T08:10:22.718Z,115.25
2022-12-20T08:11:17.679Z,115.89
2022-12-20T08:12:12.786Z,115.64
2022-12-20T08:13:07.885Z,116.53
2022-12-20T08:14:02.951Z,116.21
2022-12-20T08:14:58.911Z,116.21
2022-12-20T08:15:54.391Z,116.37
2022-12-20T08:16:49.834Z,116.05
2022-12-20T08:17:45.144Z,117.52
2022-12-20T08:18:40.752Z,120.75
2022-12-20T08:19:35.852Z,121.54
2022-12-20T08:20:31.204Z,123.70
2022-12-20T08:21:26.558Z,124.35
2022-12-20T08:22:21.965Z,124.35
2022-12-20T08:23:17.313Z,123.52
2022-12-20T08:24:12.827Z,123.43
2022-12-20T08:25:08.052Z,121.54
2022-12-20T08:26:03.463Z,120.40
2022-12-20T08:26:58.996Z,119.54
2022-12-20T08:27:54.226Z,118.60
2022-12-20T08:28:49.721Z,117.77
2022-12-20T08:29:44.962Z,117.19
2022-12-20T08:30:40.369Z,115.25
2022-12-20T08:31:35.798Z,114.22
2022-12-20T08:32:31.019Z,112.60
2022-12-20T08:33:26.515Z,111.55
2022-12-20T08:34:21.733Z,111.25
2022-12-20T08:35:17.107Z,110.00
2022-12-20T08:36:12.496Z,109.86
2022-12-20T08:37:14.530Z,109.36
2022-12-20T08:38:04.205Z,109.07
2022-12-20T08:38:58.640Z,107.80
2022-12-20T08:39:53.944Z,107.87
2022-12-20T08:40:49.332Z,108.08
2022-12-20T08:41:44.965Z,108.08
2022-12-20T08:42:40.343Z,108.29
2022-12-20T08:43:35.752Z,108.86
2022-12-20T08:44:31.217Z,108.15
2022-12-20T08:45:26.583Z,107.94
2022-12-20T08:46:26.199Z,106.15
2022-12-20T08:47:21.493Z,105.08
2022-12-20T08:48:16.852Z,105.48
2022-12-20T08:49:12.231Z,106.29
2022-12-20T08:50:07.736Z,107.32
2022-12-20T08:51:03.294Z,108.57
2022-12-20T08:51:58.515Z,108.93
2022-12-20T08:52:53.731Z,108.22
2022-12-20T08:53:49.107Z,108.93
2022-12-20T08:54:44.459Z,107.80
2022-12-20T08:55:40.050Z,107.25
2022-12-20T08:56:35.273Z,107.25
2022-12-20T08:57:30.488Z,106.70
2022-12-20T08:58:25.825Z,108.29
2022-12-20T08:59:21.192Z,110.08
2022-12-20T09:00:16.578Z,110.29
2022-12-20T09:01:12.091Z,112.45
2022-12-20T09:02:07.434Z,114.77
2022-12-20T09:03:02.860Z,118.52
2022-12-20T09:03:58.142Z,120.84
2022-12-20T09:04:53.490Z,121.36
2022-12-20T09:05:48.876Z,122.79
2022-12-20T09:06:44.255Z,126.13
2022-12-20T09:07:39.625Z,129.06
2022-12-20T09:08:34.996Z,132.02
2022-12-20T09:09:31.444Z,134.58
2022-12-20T09:10:26.835Z,137.23
2022-12-20T09:11:22.206Z,139.76
2022-12-20T09:12:17.579Z,141.06
2022-12-20T09:13:12.933Z,142.51
2022-12-20T09:14:08.419Z,143.61
2022-12-20T09:15:03.696Z,142.75
2022-12-20T09:16:00.663Z,139.76
2022-12-20T09:16:56.009Z,138.03
2022-12-20T09:17:51.277Z,138.60
2022-12-20T09:18:46.624Z,137.69
2022-12-20T09:19:42.165Z,137.57
2022-12-20T09:20:37.488Z,137.69
2022-12-20T09:21:32.878Z,137.69
2022-12-20T09:22:28.246Z,138.14
2022-12-20T09:23:23.609Z,138.95
2022-12-20T09:24:18.947Z,140.70
2022-12-20T09:25:14.402Z,141.06
2022-12-20T09:26:09.744Z,141.18
2022-12-20T09:27:05.254Z,141.78
2022-12-20T09:28:00.506Z,142.14
2022-12-20T09:29:00.126Z,138.83
2022-12-20T09:29:55.460Z,139.29
2022-12-20T09:30:50.840Z,138.83
2022-12-20T09:31:46.228Z,139.64
2022-12-20T09:32:41.728Z,139.29
2022-12-20T09:33:37.129Z,138.83
2022-12-20T09:34:32.504Z,137.91
2022-12-20T09:35:28.044Z,136.90
2022-12-20T09:36:23.339Z,136.67
2022-12-20T09:37:18.666Z,136.90
2022-12-20T09:38:14.170Z,135.56
2022-12-20T09:39:09.396Z,135.23
2022-12-20T09:40:04.832Z,136.78
2022-12-20T09:41:00.081Z,133.50
2022-12-20T09:41:55.505Z,131.71
2022-12-20T09:42:50.980Z,132.34
2022-12-20T09:43:46.299Z,129.76
2022-12-20T09:44:41.763Z,128.66
2022-12-20T09:45:36.741Z,128.76
2022-12-20T09:46:31.936Z,128.37
2022-12-20T09:47:27.000Z,128.96
2022-12-20T09:48:22.047Z,128.76
2022-12-20T09:49:17.164Z,128.96
2022-12-20T09:50:12.183Z,128.07
2022-12-20T09:51:07.264Z,127.09
2022-12-20T09:52:02.948Z,127.19
2022-12-20T09:52:57.979Z,127.48
2022-12-20T09:53:53.027Z,127.00
2022-12-20T09:54:48.036Z,127.97
2022-12-20T09:55:43.029Z,127.29
2022-12-20T09:56:38.188Z,127.09
2022-12-20T09:57:33.064Z,127.68
2022-12-20T09:58:28.100Z,126.04
2022-12-20T09:59:23.122Z,127.58
2022-12-20T10:00:18.148Z,127.19
2022-12-20T10:01:15.431Z,126.23
2022-12-20T10:02:44.022Z,123.98
2022-12-20T10:03:09.917Z,127.39
2022-12-20T10:04:00.141Z,125.47
2022-12-20T10:04:54.699Z,125.28
2022-12-20T10:05:50.233Z,124.63
2022-12-20T10:06:45.478Z,123.25
2022-12-20T10:07:41.014Z,122.70
2022-12-20T10:08:36.433Z,122.16
2022-12-20T10:09:31.873Z,120.05
2022-12-20T10:10:27.299Z,119.88
2022-12-20T10:11:22.718Z,120.05
2022-12-20T10:12:18.159Z,120.49
2022-12-20T10:13:13.995Z,119.71
2022-12-20T10:14:09.432Z,118.27
2022-12-20T10:15:09.290Z,115.89
2022-12-20T10:16:03.769Z,116.78
2022-12-20T10:16:59.033Z,115.01
2022-12-20T10:17:54.538Z,114.06
2022-12-20T10:18:50.110Z,113.91
2022-12-20T10:19:45.557Z,114.30
2022-12-20T10:20:41.099Z,113.37
2022-12-20T10:21:36.597Z,114.22
2022-12-20T10:22:32.039Z,113.44
2022-12-20T10:23:33.109Z,115.32
2022-12-20T10:24:23.920Z,115.97
2022-12-20T10:25:18.383Z,114.14
2022-12-20T10:26:13.855Z,116.21
2022-12-20T10:27:09.311Z,117.11
2022-12-20T10:28:04.811Z,117.02
2022-12-20T10:29:00.276Z,117.52
2022-12-20T10:29:55.798Z,120.92
2022-12-20T10:30:51.272Z,119.97
2022-12-20T10:31:46.787Z,119.71
2022-12-20T10:32:42.260Z,120.05
2022-12-20T10:33:37.761Z,119.37
2022-12-20T10:34:38.129Z,121.10
2022-12-20T10:35:29.599Z,121.28
2022-12-20T10:36:24.069Z,123.06
2022-12-20T10:37:23.313Z,120.66
2022-12-20T10:38:18.776Z,120.23
2022-12-20T10:39:14.516Z,122.34
2022-12-20T10:40:09.897Z,122.70
2022-12-20T10:41:22.754Z,122.88
2022-12-20T10:42:02.112Z,123.98
2022-12-20T10:42:56.403Z,125.66
2022-12-20T10:43:51.882Z,124.44
2022-12-20T10:44:47.624Z,125.56
2022-12-20T10:45:43.000Z,125.38
2022-12-20T10:46:38.153Z,122.34
2022-12-20T10:47:33.298Z,122.16
2022-12-20T10:48:28.231Z,122.61
2022-12-20T10:49:23.441Z,121.72
2022-12-20T10:50:18.531Z,121.36
2022-12-20T10:51:16.130Z,122.52
2022-12-20T10:52:08.623Z,122.34
2022-12-20T10:53:03.668Z,122.97
2022-12-20T10:53:58.753Z,120.66
2022-12-20T10:54:53.836Z,121.81
2022-12-20T10:55:48.899Z,121.10
2022-12-20T10:56:43.996Z,119.79
2022-12-20T10:57:39.078Z,120.66
2022-12-20T10:58:34.576Z,119.54
2022-12-20T10:59:30.046Z,117.77
2022-12-20T11:00:28.739Z,119.37
2022-12-20T11:01:24.202Z,119.28
2022-12-20T11:02:19.757Z,117.19
2022-12-20T11:03:15.177Z,117.11
2022-12-20T11:04:10.612Z,115.64
2022-12-20T11:05:05.974Z,114.69
2022-12-20T11:06:01.495Z,113.91
2022-12-20T11:06:57.121Z,115.40
2022-12-20T11:08:24.549Z,114.93
2022-12-20T11:08:53.895Z,113.60
2022-12-20T11:09:44.649Z,113.75
2022-12-20T11:10:39.058Z,111.77
2022-12-20T11:11:34.547Z,110.22
2022-12-20T11:12:30.028Z,110.81
2022-12-20T11:13:25.673Z,109.00
2022-12-20T11:14:21.000Z,109.43
2022-12-20T11:15:16.490Z,108.22
2022-12-20T11:16:12.144Z,107.66
2022-12-20T11:17:07.642Z,106.83
2022-12-20T11:18:03.106Z,105.82
2022-12-20T11:18:58.193Z,106.15
2022-12-20T11:19:53.348Z,104.89
2022-12-20T11:20:48.472Z,105.89
2022-12-20T11:21:43.495Z,105.48
2022-12-20T11:22:38.604Z,106.09
2022-12-20T11:23:33.558Z,104.56
2022-12-20T11:24:28.616Z,103.52
2022-12-20T11:25:23.723Z,103.78
2022-12-20T11:26:18.819Z,104.04
2022-12-20T11:27:15.840Z,103.52
2022-12-20T11:28:08.932Z,104.04
2022-12-20T11:29:03.999Z,103.78
2022-12-20T11:29:59.075Z,103.26